Time;durP1;ratioP1;P1;durP2;ratioP2;P2;SDS_P1;SDS_P2;PMS_P1;PMS_P2;Temp;Humidity;BMP_temperature;BMP_pressure;BME280_temperature;BME280_humidity;BME280_pressure;Samples;Min_cycle;Max_cycle;Signal;HPM_P1;HPM_P2
2023/12/03 00:02:05;;;;;;;5.40;3.37;;;;;;;18.21;46.62;100863.84;4976433;28;20170;-78
2023/12/03 00:04:30;;;;;;;5.53;3.50;;;;;;;18.27;46.47;100862.38;4962121;28;20193;-78
2023/12/03 00:06:56;;;;;;;4.93;3.47;;;;;;;18.21;46.80;100860.19;4969362;28;20225;-78
2023/12/03 00:09:22;;;;;;;4.47;3.03;;;;;;;18.26;46.82;100860.72;4970962;28;20186;-79
2023/12/03 00:11:47;;;;;;;4.90;3.17;;;;;;;18.26;46.34;100868.47;4986119;28;20205;-78
2023/12/03 00:14:12;;;;;;;5.60;3.20;;;;;;;18.22;46.87;100864.69;4988868;28;20601;-78
2023/12/03 00:16:38;;;;;;;5.40;3.27;;;;;;;18.27;46.55;100867.28;4986368;28;20178;-77
2023/12/03 00:19:03;;;;;;;5.07;3.33;;;;;;;18.27;46.70;100870.94;4988438;28;20992;-77
2023/12/03 00:21:29;;;;;;;8.50;3.60;;;;;;;18.27;46.76;100873.81;4969853;28;20177;-77
2023/12/03 00:23:54;;;;;;;6.07;3.17;;;;;;;18.23;47.22;100875.75;4976452;28;20179;-77
2023/12/03 00:26:20;;;;;;;3.77;2.73;;;;;;;18.27;47.01;100876.66;4970200;28;20185;-77
2023/12/03 00:28:45;;;;;;;4.67;3.23;;;;;;;18.24;46.93;100876.56;4966385;28;20249;-77
2023/12/03 00:31:11;;;;;;;5.90;3.43;;;;;;;18.24;46.84;100879.44;4973921;28;20221;-75
2023/12/03 00:33:36;;;;;;;6.67;3.10;;;;;;;18.24;46.80;100876.56;4957298;28;20233;-78
2023/12/03 00:36:02;;;;;;;5.10;2.87;;;;;;;18.22;47.24;100878.97;4988125;28;20182;-77
2023/12/03 00:38:27;;;;;;;4.40;3.07;;;;;;;18.17;47.09;100880.06;4956185;28;20182;-78
2023/12/03 00:40:53;;;;;;;5.17;3.03;;;;;;;18.16;47.63;100877.59;4971930;28;20162;-77
2023/12/03 00:43:18;;;;;;;4.63;3.27;;;;;;;18.17;47.68;100876.38;4951569;28;20352;-77
2023/12/03 00:45:44;;;;;;;5.13;3.30;;;;;;;18.14;47.16;100879.97;4967694;28;20186;-77
2023/12/03 00:48:09;;;;;;;5.27;2.97;;;;;;;18.13;47.56;100882.00;4951338;28;20197;-77
2023/12/03 00:50:35;;;;;;;4.30;2.90;;;;;;;18.14;47.61;100891.38;4967474;28;20198;-78
2023/12/03 00:53:00;;;;;;;3.97;2.57;;;;;;;18.14;47.41;100889.38;4976502;28;20182;-78
2023/12/03 00:55:27;;;;;;;5.13;3.37;;;;;;;18.17;47.48;100891.47;4967855;28;20178;-71
2023/12/03 00:57:53;;;;;;;4.17;2.50;;;;;;;18.12;47.57;100897.47;4975675;28;20185;-71
2023/12/03 01:00:19;;;;;;;7.03;3.60;;;;;;;18.15;47.54;100898.75;4971388;28;20763;-71
2023/12/03 01:02:45;;;;;;;7.10;3.00;;;;;;;18.18;47.29;100892.31;4970170;28;20185;-71
2023/12/03 01:05:10;;;;;;;5.37;3.03;;;;;;;18.13;47.54;100902.00;4993605;28;20436;-71
2023/12/03 01:07:36;;;;;;;4.13;3.00;;;;;;;18.15;47.57;100898.75;5006670;28;20173;-71
2023/12/03 01:10:01;;;;;;;4.63;2.80;;;;;;;18.13;47.52;100902.00;4990776;28;20184;-71
2023/12/03 01:12:27;;;;;;;4.70;3.00;;;;;;;18.12;47.64;100906.03;5005728;28;20185;-71
2023/12/03 01:14:52;;;;;;;4.87;2.80;;;;;;;18.11;47.80;100900.72;4986055;28;20186;-71
2023/12/03 01:17:18;;;;;;;3.90;2.80;;;;;;;18.14;47.27;100906.53;4971573;28;20185;-71
2023/12/03 01:19:43;;;;;;;4.43;3.03;;;;;;;18.17;47.58;100911.50;4985175;28;20253;-71
2023/12/03 01:22:10;;;;;;;4.83;2.87;;;;;;;18.18;47.93;100907.47;4986389;28;20359;-72
2023/12/03 01:24:35;;;;;;;5.47;3.17;;;;;;;18.17;47.50;100911.50;5007367;28;20198;-72
2023/12/03 01:27:01;;;;;;;5.80;3.20;;;;;;;18.21;47.64;100909.56;4971328;28;20444;-71
2023/12/03 01:29:26;;;;;;;4.80;3.23;;;;;;;18.24;47.26;100911.72;4954252;28;20268;-71
2023/12/03 01:31:52;;;;;;;4.70;3.07;;;;;;;18.21;47.53;100920.19;4962616;28;20256;-71
2023/12/03 01:34:18;;;;;;;4.57;3.20;;;;;;;18.20;48.00;100916.50;4961632;28;20233;-71
2023/12/03 01:36:43;;;;;;;4.00;2.87;;;;;;;18.22;47.60;100922.66;4970864;28;20173;-72
2023/12/03 01:39:09;;;;;;;5.27;3.47;;;;;;;18.22;47.34;100925.50;4971355;28;20182;-71
2023/12/03 01:41:34;;;;;;;3.50;2.50;;;;;;;18.20;47.85;100924.22;4987770;28;20192;-71
2023/12/03 01:43:59;;;;;;;4.23;2.63;;;;;;;18.22;47.72;100922.66;4989519;28;20182;-71
2023/12/03 01:46:26;;;;;;;3.87;2.80;;;;;;;18.18;47.97;100923.75;4987622;28;20229;-71
2023/12/03 01:48:53;;;;;;;4.50;2.87;;;;;;;18.20;48.06;100929.94;4987509;28;20720;-71
2023/12/03 01:51:18;;;;;;;4.77;3.37;;;;;;;18.15;47.85;100922.47;4969240;28;20859;-71
2023/12/03 01:53:44;;;;;;;6.10;2.87;;;;;;;18.21;47.74;100925.91;4970130;28;20436;-71
2023/12/03 01:56:10;;;;;;;5.80;2.80;;;;;;;18.16;47.77;100934.75;5018168;28;21017;-71
2023/12/03 01:58:35;;;;;;;4.40;3.00;;;;;;;18.16;47.55;100932.69;4990317;28;20177;-71
2023/12/03 02:01:01;;;;;;;4.10;2.77;;;;;;;18.18;48.02;100935.19;4990126;28;20429;-78
2023/12/03 02:03:27;;;;;;;3.80;2.47;;;;;;;18.11;47.96;100940.72;4996566;28;20673;-77
2023/12/03 02:06:04;;;;;;;3.40;2.50;;;;;;;18.11;48.53;100930.09;4967856;28;20665;-78
2023/12/03 02:08:30;;;;;;;4.10;2.40;;;;;;;18.13;47.92;100939.16;4971541;28;20604;-78
2023/12/03 02:10:55;;;;;;;4.03;2.50;;;;;;;18.12;48.04;100943.19;4973310;28;20475;-77
2023/12/03 02:13:21;;;;;;;4.17;2.77;;;;;;;18.07;48.16;100937.72;4969882;28;20174;-77
2023/12/03 02:15:46;;;;;;;3.40;2.50;;;;;;;18.10;48.15;100948.44;4988396;28;20926;-77
2023/12/03 02:18:12;;;;;;;5.47;3.30;;;;;;;18.09;48.55;100938.22;4976868;28;20181;-77
2023/12/03 02:20:37;;;;;;;3.40;2.20;;;;;;;18.10;48.24;100945.59;4990045;28;20638;-77
2023/12/03 02:23:03;;;;;;;3.73;2.57;;;;;;;18.10;47.81;100939.88;4999247;28;20174;-78
2023/12/03 02:25:28;;;;;;;5.43;2.80;;;;;;;18.10;48.08;100942.72;4992358;28;20185;-77
2023/12/03 02:27:54;;;;;;;4.43;2.90;;;;;;;18.08;48.32;100938.56;4974459;28;20692;-77
2023/12/03 02:30:19;;;;;;;4.20;2.70;;;;;;;18.10;48.49;100937.00;4974473;28;20178;-78
2023/12/03 02:32:45;;;;;;;4.50;2.90;;;;;;;18.15;47.98;100939.59;4990672;28;20232;-78
2023/12/03 02:35:10;;;;;;;3.63;2.43;;;;;;;18.15;48.19;100944.47;4990121;28;20252;-77
2023/12/03 02:37:36;;;;;;;3.67;2.43;;;;;;;18.15;48.08;100935.91;4973614;28;20612;-78
2023/12/03 02:40:01;;;;;;;3.90;3.00;;;;;;;18.15;48.25;100933.91;4971254;28;20179;-79
2023/12/03 02:42:27;;;;;;;5.20;2.93;;;;;;;18.16;48.08;100929.84;4971384;28;20165;-78
2023/12/03 02:44:52;;;;;;;3.73;2.63;;;;;;;18.14;48.35;100942.81;4974493;28;20189;-78
2023/12/03 02:47:18;;;;;;;5.60;3.20;;;;;;;18.11;48.14;100940.72;4990284;28;20190;-78
2023/12/03 02:49:45;;;;;;;5.60;3.03;;;;;;;18.16;48.27;100946.97;5006783;28;20174;-78
2023/12/03 02:52:10;;;;;;;4.30;2.97;;;;;;;18.11;48.50;100946.44;4975210;28;20209;-77
2023/12/03 02:54:37;;;;;;;4.10;2.50;;;;;;;18.17;48.08;100944.97;4969886;28;20765;-78
2023/12/03 02:57:05;;;;;;;3.73;2.53;;;;;;;18.14;48.19;100946.53;4977450;28;20747;-78
2023/12/03 02:59:30;;;;;;;3.70;2.50;;;;;;;18.11;48.23;100950.09;4988501;28;20428;-77
2023/12/03 03:01:56;;;;;;;4.10;2.60;;;;;;;18.14;48.10;100949.38;4988247;28;20421;-77
2023/12/03 03:04:21;;;;;;;3.37;2.50;;;;;;;18.16;48.26;100944.13;4971145;28;20229;-79
2023/12/03 03:06:47;;;;;;;5.03;2.70;;;;;;;18.13;48.52;100950.59;4988343;28;20205;-77
2023/12/03 03:09:12;;;;;;;4.03;2.60;;;;;;;18.17;48.05;100942.09;4987666;28;20197;-79
2023/12/03 03:11:38;;;;;;;3.87;2.60;;;;;;;18.09;48.54;100945.94;4971402;28;20198;-78
2023/12/03 03:14:03;;;;;;;3.93;2.97;;;;;;;18.07;48.68;100943.44;4973011;28;20260;-78
2023/12/03 03:16:29;;;;;;;3.37;2.30;;;;;;;18.07;48.57;100943.44;5005109;28;20189;-77
2023/12/03 03:18:54;;;;;;;3.93;2.57;;;;;;;18.05;48.76;100942.97;4976454;28;20245;-78
2023/12/03 03:21:20;;;;;;;3.23;2.40;;;;;;;18.03;48.50;100939.66;5003504;28;20203;-78
2023/12/03 03:23:46;;;;;;;3.63;2.80;;;;;;;18.04;48.63;100941.31;4992199;28;20189;-78
2023/12/03 03:26:11;;;;;;;4.00;2.80;;;;;;;18.06;48.39;100944.63;5007769;28;20499;-78
2023/12/03 03:28:36;;;;;;;4.27;2.90;;;;;;;18.05;48.08;100945.84;5007597;28;20200;-78
2023/12/03 03:31:02;;;;;;;4.20;2.67;;;;;;;18.03;48.80;100953.09;4997545;28;20272;-77
2023/12/03 03:33:27;;;;;;;4.47;2.80;;;;;;;18.04;48.33;100949.91;4986178;28;20265;-76
2023/12/03 03:35:53;;;;;;;4.13;2.70;;;;;;;18.04;48.40;100947.03;4953874;28;20325;-75
2023/12/03 03:38:18;;;;;;;4.03;2.50;;;;;;;18.01;48.72;100950.59;4953039;28;20189;-78
2023/12/03 03:40:44;;;;;;;3.70;2.40;;;;;;;18.06;48.30;100952.41;4953933;28;20178;-78
2023/12/03 03:43:09;;;;;;;4.10;2.40;;;;;;;18.08;48.50;100958.56;4970284;28;20256;-78
2023/12/03 03:45:35;;;;;;;4.87;2.90;;;;;;;18.08;48.43;100961.44;4952105;28;20240;-78
2023/12/03 03:48:00;;;;;;;4.23;2.53;;;;;;;18.08;48.58;100967.13;4953135;28;20190;-77
2023/12/03 03:50:25;;;;;;;4.07;2.40;;;;;;;18.07;48.74;100965.47;4968719;28;20182;-78
2023/12/03 03:52:51;;;;;;;3.70;2.50;;;;;;;18.04;48.90;100975.59;4970649;28;20229;-78
2023/12/03 03:55:16;;;;;;;3.97;2.50;;;;;;;18.08;48.45;100982.28;4968985;28;20517;-78
2023/12/03 03:57:42;;;;;;;3.70;2.63;;;;;;;18.10;48.95;100988.44;4954720;28;20640;-77
2023/12/03 04:00:08;;;;;;;3.80;2.27;;;;;;;18.09;48.94;100986.78;4950424;28;20187;-78
2023/12/03 04:02:33;;;;;;;4.23;2.30;;;;;;;18.12;48.39;100996.66;4952504;28;20700;-76
2023/12/03 04:04:59;;;;;;;3.93;2.70;;;;;;;18.05;49.21;100999.28;4950781;28;20430;-77
2023/12/03 04:07:24;;;;;;;3.70;2.30;;;;;;;18.09;48.38;100992.50;4931095;28;20194;-77
2023/12/03 04:09:49;;;;;;;3.27;2.30;;;;;;;18.15;48.31;101001.63;4962704;28;20179;-78
2023/12/03 04:12:15;;;;;;;3.60;2.07;;;;;;;18.09;48.58;101000.22;4949183;29;20218;-77
2023/12/03 04:14:40;;;;;;;3.83;2.40;;;;;;;18.08;48.61;101001.44;4949502;29;20171;-75
2023/12/03 04:17:07;;;;;;;3.87;2.60;;;;;;;18.07;48.67;101000.59;4953863;28;20182;-75
2023/12/03 04:19:33;;;;;;;4.17;2.80;;;;;;;18.10;48.53;100999.88;4953492;28;20187;-75
2023/12/03 04:21:58;;;;;;;3.70;2.60;;;;;;;18.11;48.63;101009.28;4955432;28;20832;-75
2023/12/03 04:24:24;;;;;;;4.43;2.30;;;;;;;18.11;48.52;101009.28;4966244;28;20178;-74
2023/12/03 04:26:49;;;;;;;4.27;2.40;;;;;;;18.13;48.07;101010.59;4937127;28;20248;-75
2023/12/03 04:29:14;;;;;;;4.07;2.80;;;;;;;18.05;48.82;101008.69;4951800;28;20175;-75
2023/12/03 04:31:40;;;;;;;4.70;2.70;;;;;;;18.04;48.84;101012.75;4953258;28;20872;-75
2023/12/03 04:34:05;;;;;;;3.43;2.47;;;;;;;18.03;48.90;101015.97;4951358;28;20725;-75
2023/12/03 04:36:31;;;;;;;3.77;2.63;;;;;;;18.06;48.54;101018.13;4968179;28;20189;-75
2023/12/03 04:38:56;;;;;;;3.50;2.47;;;;;;;18.05;48.67;101025.00;4988641;28;20174;-75
2023/12/03 04:41:22;;;;;;;4.53;2.60;;;;;;;18.06;48.49;101026.69;5004119;28;20185;-75
2023/12/03 04:43:47;;;;;;;3.90;2.50;;;;;;;18.01;48.92;101036.31;4988340;28;20240;-75
2023/12/03 04:46:13;;;;;;;3.60;2.37;;;;;;;18.05;48.55;101028.69;4960755;28;20561;-75
2023/12/03 04:48:39;;;;;;;3.87;2.67;;;;;;;18.00;48.89;101037.50;4972433;28;20188;-75
2023/12/03 04:51:05;;;;;;;4.40;2.80;;;;;;;18.02;48.86;101040.03;4987632;28;20205;-75
2023/12/03 04:53:30;;;;;;;4.60;2.70;;;;;;;18.02;48.69;101032.25;4978874;28;20237;-75
2023/12/03 04:55:56;;;;;;;3.07;2.70;;;;;;;18.05;48.75;101031.56;4968373;28;20186;-75
2023/12/03 04:58:21;;;;;;;4.37;2.50;;;;;;;18.12;48.59;101036.66;4971858;28;20184;-75
2023/12/03 05:00:47;;;;;;;3.20;2.47;;;;;;;18.11;49.11;101038.69;4986432;28;20162;-75
2023/12/03 05:03:12;;;;;;;4.00;2.70;;;;;;;18.11;48.70;101032.16;4985320;28;20193;-75
2023/12/03 05:05:38;;;;;;;3.80;2.47;;;;;;;18.11;48.56;101037.88;4953649;28;20193;-74
2023/12/03 05:08:03;;;;;;;3.93;2.67;;;;;;;18.10;48.52;101031.31;4949980;28;20197;-75
2023/12/03 05:10:31;;;;;;;3.90;2.50;;;;;;;18.13;48.42;101026.91;4986059;28;20166;-75
2023/12/03 05:12:57;;;;;;;3.80;2.77;;;;;;;18.15;48.18;101027.34;4990894;28;20178;-76
2023/12/03 05:15:23;;;;;;;4.13;2.67;;;;;;;18.17;48.77;101034.38;4988221;28;20814;-74
2023/12/03 05:17:48;;;;;;;5.50;2.77;;;;;;;18.10;48.91;101027.59;4997894;28;20592;-75
2023/12/03 05:20:14;;;;;;;3.10;2.07;;;;;;;18.12;48.83;101031.75;4997216;28;20703;-75
2023/12/03 05:22:39;;;;;;;3.27;2.50;;;;;;;18.14;48.66;101029.41;4987614;28;20522;-75
2023/12/03 05:25:05;;;;;;;3.50;2.43;;;;;;;18.17;48.66;101022.13;4989165;28;20181;-71
2023/12/03 05:27:31;;;;;;;3.83;2.33;;;;;;;18.15;48.33;101024.50;4954767;28;20205;-70
2023/12/03 05:29:56;;;;;;;3.50;2.50;;;;;;;18.15;48.64;101025.34;4968603;28;20430;-71
2023/12/03 05:32:22;;;;;;;3.50;2.37;;;;;;;18.12;48.57;101026.06;4979411;28;20272;-71
2023/12/03 05:34:47;;;;;;;3.80;2.27;;;;;;;18.14;48.70;101034.25;4968135;28;20234;-71
2023/12/03 05:37:13;;;;;;;3.30;2.60;;;;;;;18.15;48.30;101031.06;4965000;28;20654;-71
2023/12/03 05:39:40;;;;;;;3.83;2.63;;;;;;;18.16;48.55;101044.16;4952840;28;20269;-71
2023/12/03 05:42:05;;;;;;;3.10;2.10;;;;;;;18.13;48.67;101039.16;4952492;28;20700;-71
2023/12/03 05:44:31;;;;;;;3.03;2.23;;;;;;;18.10;48.45;101037.03;4939979;28;20516;-71
2023/12/03 05:46:56;;;;;;;3.17;2.20;;;;;;;18.08;48.97;101044.28;4937867;28;20623;-71
2023/12/03 05:49:24;;;;;;;4.10;2.80;;;;;;;18.11;48.89;101046.44;4967079;28;20198;-71
2023/12/03 05:51:49;;;;;;;3.03;2.33;;;;;;;18.10;48.85;101048.44;4934824;29;20358;-71
2023/12/03 05:54:15;;;;;;;3.07;2.10;;;;;;;18.07;49.12;101040.59;4964264;28;20545;-71
2023/12/03 05:56:41;;;;;;;4.40;2.60;;;;;;;18.10;48.87;101039.88;4963643;28;20333;-71
2023/12/03 05:59:06;;;;;;;4.67;3.13;;;;;;;18.05;49.06;101025.84;4954793;28;21004;-71
2023/12/03 06:01:32;;;;;;;4.00;2.60;;;;;;;18.07;48.87;101034.88;4950689;28;20178;-71
2023/12/03 06:03:58;;;;;;;4.03;2.70;;;;;;;18.09;48.53;101038.22;4949763;28;20277;-71
2023/12/03 06:06:23;;;;;;;3.30;2.37;;;;;;;18.09;49.33;101043.94;4978288;28;20555;-73
2023/12/03 06:08:50;;;;;;;3.87;2.50;;;;;;;18.06;49.33;101038.94;4957705;28;20185;-71
2023/12/03 06:11:16;;;;;;;3.80;2.50;;;;;;;18.07;49.10;101043.44;4952545;28;20198;-70
2023/12/03 06:13:41;;;;;;;3.03;2.20;;;;;;;18.11;48.69;101047.25;4934825;28;20456;-71
2023/12/03 06:16:07;;;;;;;4.00;2.30;;;;;;;18.14;48.86;101051.41;4956659;28;20244;-71
2023/12/03 06:18:34;;;;;;;3.87;2.70;;;;;;;18.12;48.63;101054.63;4970932;28;20181;-71
2023/12/03 06:20:59;;;;;;;13.13;2.53;;;;;;;18.10;48.98;101056.19;4988380;28;20539;-71
2023/12/03 06:23:24;;;;;;;3.27;2.37;;;;;;;18.12;48.70;101056.66;4968002;28;20457;-71
2023/12/03 06:25:50;;;;;;;3.73;2.30;;;;;;;18.10;49.10;101048.44;4968789;28;20178;-71
2023/12/03 06:28:15;;;;;;;4.00;2.67;;;;;;;18.13;48.53;101044.88;4977922;28;20174;-71
2023/12/03 06:30:41;;;;;;;3.37;2.30;;;;;;;18.16;48.98;101049.03;4983125;28;20213;-71
2023/12/03 06:33:06;;;;;;;7.00;2.53;;;;;;;18.14;48.80;101049.41;4969822;28;20193;-71
2023/12/03 06:35:32;;;;;;;4.30;2.70;;;;;;;18.16;48.78;101055.56;5008117;28;20161;-71
2023/12/03 06:37:57;;;;;;;4.10;2.80;;;;;;;18.18;48.83;101058.94;4973431;28;20170;-71
2023/12/03 06:40:22;;;;;;;3.27;2.40;;;;;;;18.19;48.56;101063.44;5008436;28;20181;-71
2023/12/03 06:42:48;;;;;;;3.80;2.63;;;;;;;18.21;48.33;101057.38;5007257;28;20516;-71
2023/12/03 06:45:13;;;;;;;4.53;2.60;;;;;;;18.16;48.89;101055.56;4989972;28;20177;-70
2023/12/03 06:47:39;;;;;;;3.60;2.53;;;;;;;18.20;48.49;101059.38;4956781;28;20189;-71
2023/12/03 06:50:05;;;;;;;3.97;2.70;;;;;;;18.21;48.43;101069.63;4989989;28;20177;-71
2023/12/03 06:52:30;;;;;;;3.50;2.60;;;;;;;18.18;48.86;101078.09;4972573;28;20213;-71
2023/12/03 06:54:56;;;;;;;3.50;2.50;;;;;;;18.15;48.41;101071.06;4990891;28;20445;-72
2023/12/03 06:57:21;;;;;;;3.10;2.30;;;;;;;18.23;48.48;101070.09;4976242;28;20347;-71
2023/12/03 06:59:47;;;;;;;4.07;2.50;;;;;;;18.17;48.65;101062.13;4970157;28;20181;-72
2023/12/03 07:02:12;;;;;;;3.23;2.57;;;;;;;18.15;48.68;101071.06;4973271;28;20177;-71
2023/12/03 07:04:39;;;;;;;3.57;2.47;;;;;;;18.16;48.30;101069.88;4972054;28;20192;-71
2023/12/03 07:07:04;;;;;;;3.10;2.43;;;;;;;18.15;48.73;101071.06;4992143;28;20323;-73
2023/12/03 07:09:30;;;;;;;5.47;2.77;;;;;;;18.19;48.48;101076.88;5011296;28;20458;-71
2023/12/03 07:11:56;;;;;;;4.13;2.47;;;;;;;18.16;48.88;101078.44;5010800;28;20201;-71
2023/12/03 07:14:21;;;;;;;3.70;2.60;;;;;;;18.15;48.56;101081.66;5020205;28;20176;-71
2023/12/03 07:16:46;;;;;;;3.70;2.70;;;;;;;18.14;48.68;101083.69;5025329;28;20208;-71
2023/12/03 07:19:12;;;;;;;4.00;2.50;;;;;;;18.11;49.10;101075.81;5011360;28;20239;-71
2023/12/03 07:21:38;;;;;;;3.90;2.73;;;;;;;18.15;48.95;101071.06;4977039;28;20181;-72
2023/12/03 07:24:03;;;;;;;3.43;2.47;;;;;;;18.15;48.84;101067.34;4995253;28;20189;-71
2023/12/03 07:26:29;;;;;;;4.50;2.87;;;;;;;18.11;49.21;101063.59;4975988;28;20188;-71
2023/12/03 07:28:54;;;;;;;3.23;2.50;;;;;;;18.15;48.96;101071.06;4976994;28;20177;-71
2023/12/03 07:31:20;;;;;;;3.43;2.70;;;;;;;18.16;49.10;101074.75;5020193;28;20209;-71
2023/12/03 07:33:46;;;;;;;3.87;3.00;;;;;;;18.13;48.89;101067.75;5009349;28;20594;-71
2023/12/03 07:36:11;;;;;;;4.37;2.50;;;;;;;18.18;49.06;101076.06;4992773;28;20188;-71
2023/12/03 07:38:38;;;;;;;3.53;2.43;;;;;;;18.18;48.87;101075.22;4972640;28;20199;-72
2023/12/03 07:41:09;;;;;;;3.80;2.90;;;;;;;18.17;48.67;101071.53;4956950;28;20212;-71
2023/12/03 07:43:35;;;;;;;3.90;2.80;;;;;;;18.22;49.03;101076.19;4976659;28;20974;-71
2023/12/03 07:46:00;;;;;;;3.03;2.47;;;;;;;18.19;48.57;101065.44;4978288;28;20428;-71
2023/12/03 07:48:26;;;;;;;4.20;2.67;;;;;;;18.22;48.93;101071.28;4958446;28;20212;-71
2023/12/03 07:50:51;;;;;;;4.20;2.73;;;;;;;18.25;48.69;101066.88;4967750;28;20292;-72
2023/12/03 07:53:18;;;;;;;4.33;2.87;;;;;;;18.23;48.73;101066.41;4956133;28;20271;-71
2023/12/03 07:55:43;;;;;;;3.53;2.70;;;;;;;18.22;49.01;101074.13;4955930;28;20221;-70
2023/12/03 07:58:09;;;;;;;3.90;2.60;;;;;;;18.27;48.98;101084.50;4955673;28;21063;-71
2023/12/03 08:00:36;;;;;;;3.90;2.53;;;;;;;18.25;49.13;101086.88;4990010;28;20189;-71
2023/12/03 08:03:01;;;;;;;4.17;2.67;;;;;;;18.26;48.78;101089.38;4976237;28;20862;-71
2023/12/03 08:05:27;;;;;;;4.07;2.60;;;;;;;18.24;48.74;101102.38;4978039;28;20432;-71
2023/12/03 08:07:53;;;;;;;4.93;3.20;;;;;;;18.23;48.68;101107.25;5009459;28;20177;-72
2023/12/03 08:10:18;;;;;;;4.13;2.60;;;;;;;18.24;48.71;101108.94;5013597;28;20971;-71
2023/12/03 08:12:44;;;;;;;3.43;2.13;;;;;;;18.25;48.69;101109.75;4992609;28;20311;-71
2023/12/03 08:15:10;;;;;;;3.77;2.87;;;;;;;18.22;49.13;101105.56;4976009;28;20197;-71
2023/12/03 08:17:36;;;;;;;3.43;2.20;;;;;;;18.26;48.65;101109.38;4972318;28;20192;-71
2023/12/03 08:20:02;;;;;;;4.30;2.80;;;;;;;18.22;48.69;101104.75;4976540;28;20169;-71
2023/12/03 08:22:28;;;;;;;3.43;2.13;;;;;;;18.26;48.96;101105.72;4984377;28;20416;-71
2023/12/03 08:24:53;;;;;;;3.10;2.10;;;;;;;18.23;48.98;101109.28;4978911;28;20424;-71
2023/12/03 08:27:19;;;;;;;3.70;2.33;;;;;;;18.24;49.13;101108.94;4958538;28;20189;-71
2023/12/03 08:29:44;;;;;;;3.73;2.53;;;;;;;18.23;48.99;101101.53;4976071;28;20254;-71
2023/12/03 08:32:10;;;;;;;3.17;2.20;;;;;;;18.26;48.77;101095.09;4972640;28;20194;-71
2023/12/03 08:34:35;;;;;;;3.20;2.23;;;;;;;18.21;49.03;101088.81;4975625;28;20245;-72
2023/12/03 08:37:01;;;;;;;4.07;2.50;;;;;;;18.23;49.04;101095.00;4993248;28;20188;-71
2023/12/03 08:39:26;;;;;;;3.23;2.30;;;;;;;18.22;48.77;101085.56;4995245;28;20177;-71
2023/12/03 08:41:52;;;;;;;3.50;2.40;;;;;;;18.23;49.10;101090.13;4989903;28;20177;-71
2023/12/03 08:44:18;;;;;;;3.67;2.37;;;;;;;18.22;48.87;101094.13;5007000;28;20200;-71
2023/12/03 08:46:43;;;;;;;3.80;2.47;;;;;;;18.16;49.58;101095.59;4973272;28;20506;-71
2023/12/03 08:49:09;;;;;;;3.67;2.40;;;;;;;18.18;48.66;101098.94;5009786;28;20256;-71
2023/12/03 08:51:36;;;;;;;4.00;2.70;;;;;;;18.20;48.87;101107.97;4972398;28;20200;-71
2023/12/03 08:54:02;;;;;;;3.63;2.27;;;;;;;18.26;49.09;101109.38;4959510;28;20272;-71
2023/12/03 08:56:27;;;;;;;4.10;2.63;;;;;;;18.24;49.33;101096.66;4990169;28;20543;-77
2023/12/03 08:58:53;;;;;;;3.57;2.47;;;;;;;18.28;48.93;101103.31;4990462;28;20323;-74
2023/12/03 09:01:20;;;;;;;3.47;2.40;;;;;;;18.29;48.74;101102.97;4990068;28;20189;-78
2023/12/03 09:03:45;;;;;;;3.90;2.23;;;;;;;18.32;49.07;101099.41;4974518;28;20185;-78
2023/12/03 09:06:12;;;;;;;3.43;2.20;;;;;;;18.35;48.96;101109.28;4975637;28;20482;-79
2023/12/03 09:08:38;;;;;;;3.67;2.67;;;;;;;18.35;48.88;101110.13;4986814;28;20203;-78
2023/12/03 09:11:07;;;;;;;4.40;2.40;;;;;;;18.35;48.86;101110.13;4973970;28;20452;-78
2023/12/03 09:13:33;;;;;;;4.40;2.40;;;;;;;18.38;48.47;101102.84;4974210;28;20185;-78
2023/12/03 09:15:58;;;;;;;4.60;2.50;;;;;;;18.39;48.60;101111.06;4958193;28;20452;-78
2023/12/03 09:18:24;;;;;;;4.60;2.97;;;;;;;18.37;49.07;101110.59;4972735;28;20688;-78
2023/12/03 09:20:50;;;;;;;3.90;2.73;;;;;;;18.35;49.05;101109.28;5026877;28;20179;-79
2023/12/03 09:23:15;;;;;;;3.53;2.30;;;;;;;18.32;49.15;101113.69;5008406;28;20165;-78
2023/12/03 09:25:41;;;;;;;3.50;2.30;;;;;;;18.31;49.12;101109.13;5007268;28;20438;-78
2023/12/03 09:28:06;;;;;;;3.20;2.10;;;;;;;18.27;49.38;101108.19;4990728;28;20222;-79
2023/12/03 09:30:32;;;;;;;3.70;2.20;;;;;;;18.27;49.40;101098.78;4991060;28;20227;-77
2023/12/03 09:32:58;;;;;;;3.10;2.33;;;;;;;18.27;49.33;101105.31;4964774;28;20654;-77
2023/12/03 09:35:24;;;;;;;5.50;2.77;;;;;;;18.28;48.85;101103.31;4972420;28;20276;-75
2023/12/03 09:37:49;;;;;;;3.60;2.40;;;;;;;18.31;49.02;101109.13;4972232;28;20425;-78
2023/12/03 09:40:15;;;;;;;4.70;2.70;;;;;;;18.28;49.05;101109.03;4970105;28;20229;-79
2023/12/03 09:42:40;;;;;;;12.10;3.73;;;;;;;18.34;48.46;101113.34;4951143;28;20190;-76
2023/12/03 09:45:09;;;;;;;6.30;2.83;;;;;;;18.24;49.04;101106.06;4997329;28;20185;-79
2023/12/03 09:47:35;;;;;;;3.77;2.67;;;;;;;18.26;49.04;101112.25;4966145;28;20249;-78
2023/12/03 09:50:02;;;;;;;4.40;2.20;;;;;;;18.26;49.14;101117.97;4996913;28;20822;-78
2023/12/03 09:52:28;;;;;;;3.50;2.53;;;;;;;18.29;49.01;101116.41;4986344;28;20482;-77
2023/12/03 09:54:55;;;;;;;4.03;3.03;;;;;;;18.22;49.39;101111.28;4970974;28;20420;-78
2023/12/03 09:57:21;;;;;;;3.70;2.43;;;;;;;18.29;49.67;101117.25;4971448;28;20441;-74
2023/12/03 09:59:47;;;;;;;3.97;2.63;;;;;;;18.30;49.52;101112.34;5002546;28;20759;-78
2023/12/03 10:02:13;;;;;;;3.90;2.30;;;;;;;18.30;49.29;101115.22;4986376;28;20701;-79
2023/12/03 10:04:38;;;;;;;4.00;2.60;;;;;;;18.29;49.02;101108.69;4982133;28;20185;-72
2023/12/03 10:07:04;;;;;;;3.57;2.57;;;;;;;18.27;49.82;101102.47;4985115;28;20964;-78
2023/12/03 10:09:30;;;;;;;3.77;2.13;;;;;;;18.34;49.50;101105.59;4984008;28;20177;-77
2023/12/03 10:11:56;;;;;;;4.97;2.30;;;;;;;18.36;49.32;101113.81;4985309;28;20201;-78
2023/12/03 10:14:22;;;;;;;4.60;2.40;;;;;;;18.29;49.26;101105.81;4980811;28;20179;-78
2023/12/03 10:16:48;;;;;;;3.90;2.63;;;;;;;18.29;49.25;101105.81;4987579;28;20460;-78
2023/12/03 10:19:23;;;;;;;4.73;2.37;;;;;;;18.31;49.34;101103.41;5004123;28;20273;-78
2023/12/03 10:21:50;;;;;;;3.63;2.40;;;;;;;18.31;49.46;101106.28;4993252;28;20529;-78
2023/12/03 10:24:15;;;;;;;4.20;2.50;;;;;;;18.34;49.83;101102.75;4969841;28;20455;-76
2023/12/03 10:26:59;;;;;;;3.47;2.27;;;;;;;18.37;49.13;101093.44;4986647;28;20437;-78
2023/12/03 10:29:25;;;;;;;2.80;2.17;;;;;;;18.39;49.35;101088.19;4989396;28;20185;-78
2023/12/03 10:31:50;;;;;;;3.57;2.07;;;;;;;18.37;49.23;101087.72;4981599;28;20462;-79
2023/12/03 10:34:20;;;;;;;3.37;2.50;;;;;;;18.38;49.43;101085.69;5002777;28;20581;-78
2023/12/03 10:36:46;;;;;;;3.13;2.30;;;;;;;18.40;49.65;101083.31;4988860;28;20891;-78
2023/12/03 10:39:17;;;;;;;4.10;2.70;;;;;;;18.41;49.57;101077.22;5003970;28;20447;-77
2023/12/03 10:41:46;;;;;;;2.73;2.43;;;;;;;18.39;49.40;101070.22;4988414;28;21504;-78
2023/12/03 10:44:23;;;;;;;3.70;2.33;;;;;;;18.39;49.36;101070.22;4972124;28;20436;-79
2023/12/03 10:46:49;;;;;;;3.97;2.50;;;;;;;18.43;49.52;101071.16;4976026;28;20440;-79
2023/12/03 10:49:14;;;;;;;3.30;2.27;;;;;;;18.39;49.20;101068.19;4955697;28;20425;-78
2023/12/03 10:51:43;;;;;;;3.50;2.67;;;;;;;18.39;49.60;101058.78;4972212;28;20208;-79
2023/12/03 10:54:12;;;;;;;5.70;2.50;;;;;;;18.41;49.34;101060.06;4987460;28;20198;-78
2023/12/03 10:56:37;;;;;;;3.23;2.27;;;;;;;18.38;49.27;101060.81;4938253;28;20426;-79
2023/12/03 10:59:09;;;;;;;3.30;2.30;;;;;;;18.37;49.63;101056.25;4969982;28;21357;-77
2023/12/03 11:01:34;;;;;;;5.83;2.90;;;;;;;18.41;49.40;101054.34;4992401;28;20186;-78
2023/12/03 11:04:09;;;;;;;3.87;2.60;;;;;;;18.42;49.98;101053.16;4973801;28;20437;-79
2023/12/03 11:06:35;;;;;;;3.30;2.23;;;;;;;18.39;49.72;101045.31;4991257;28;20207;-76
2023/12/03 11:09:00;;;;;;;4.10;2.57;;;;;;;18.36;49.46;101046.03;4971310;28;20437;-77
2023/12/03 11:11:26;;;;;;;3.60;1.93;;;;;;;18.40;49.96;101041.25;4973738;28;20198;-78
2023/12/03 11:13:56;;;;;;;3.80;2.27;;;;;;;18.37;49.58;101046.88;4974328;28;21014;-78
2023/12/03 11:16:21;;;;;;;3.20;2.10;;;;;;;18.34;49.60;101037.00;4974466;28;20181;-75
2023/12/03 11:19:02;;;;;;;3.63;2.17;;;;;;;18.41;49.49;101040.06;4961425;28;20441;-76